createdAt,value
2018-12-17T00:01:08.869Z,26.27
2018-12-17T00:03:36.426Z,30.32
2018-12-17T00:06:04.071Z,25.85
2018-12-17T00:08:32.079Z,23.75
2018-12-17T00:11:01.782Z,27.48
2018-12-17T00:13:29.329Z,32.63
2018-12-17T00:15:57.711Z,31.37
2018-12-17T00:18:25.464Z,25.62
2018-12-17T00:20:53.017Z,26.75
2018-12-17T00:23:20.546Z,43.87
2018-12-17T00:25:54.598Z,44.73
2018-12-17T00:28:24.409Z,23.95
2018-12-17T00:30:53.790Z,22.77
2018-12-17T00:33:21.664Z,23.42
2018-12-17T00:35:51.921Z,17.62
2018-12-17T00:38:22.103Z,22.00
2018-12-17T00:40:49.667Z,20.97
2018-12-17T00:43:17.792Z,18.77
2018-12-17T00:45:47.653Z,18.90
2018-12-17T00:48:18.018Z,23.98
2018-12-17T00:50:45.655Z,15.55
2018-12-17T00:53:13.984Z,21.05
2018-12-17T00:55:41.571Z,16.40
2018-12-17T00:58:15.145Z,22.98
2018-12-17T01:00:39.269Z,24.72
2018-12-17T01:03:07.837Z,22.13
2018-12-17T01:05:35.437Z,22.87
2018-12-17T01:08:07.272Z,18.17
2018-12-17T01:10:34.876Z,19.32
2018-12-17T01:13:02.721Z,20.90
2018-12-17T01:15:33.322Z,16.32
2018-12-17T01:18:02.295Z,19.82
2018-12-17T01:20:30.831Z,22.32
2018-12-17T01:22:59.125Z,19.35
2018-12-17T01:25:34.197Z,24.10
2018-12-17T01:28:02.510Z,15.35
2018-12-17T01:30:40.058Z,16.35
2018-12-17T01:33:09.859Z,14.43
2018-12-17T01:35:37.448Z,12.05
2018-12-17T01:38:13.901Z,17.87
2018-12-17T01:43:33.142Z,10.35
2018-12-17T01:46:18.612Z,14.73
2018-12-17T01:48:49.117Z,18.70
2018-12-17T01:51:17.659Z,25.15
2018-12-17T01:53:47.999Z,15.10
2018-12-17T01:56:15.531Z,17.37
2018-12-17T01:58:44.047Z,20.52
2018-12-17T02:01:11.697Z,15.55
2018-12-17T02:03:39.685Z,22.32
2018-12-17T02:11:49.626Z,17.87
2018-12-17T02:14:17.855Z,15.30
2018-12-17T02:16:45.527Z,17.87
2018-12-17T02:22:06.704Z,19.37
2018-12-17T02:24:37.035Z,18.50
2018-12-17T02:27:05.289Z,16.82
2018-12-17T02:29:35.150Z,18.07
2018-12-17T02:32:02.743Z,16.77
2018-12-17T02:37:21.928Z,20.27
2018-12-17T02:39:50.262Z,17.05
2018-12-17T02:50:50.430Z,13.05
2018-12-17T02:59:07.829Z,18.05
2018-12-17T03:01:35.406Z,21.25
2018-12-17T03:04:03.101Z,16.62
2018-12-17T03:06:31.886Z,13.48
2018-12-17T03:08:59.511Z,14.18
2018-12-17T03:11:27.038Z,15.88
2018-12-17T03:16:34.879Z,19.80
2018-12-17T03:19:02.495Z,15.88
2018-12-17T03:35:46.215Z,23.67
2018-12-17T03:55:52.726Z,27.58
2018-12-17T04:09:10.274Z,17.62
2018-12-17T04:11:37.840Z,19.02
2018-12-17T04:30:49.957Z,25.08
2018-12-17T04:33:17.516Z,18.57
2018-12-17T04:47:38.763Z,13.85
2018-12-17T05:29:26.962Z,12.55
2018-12-17T05:36:09.798Z,15.23
2018-12-17T05:56:11.980Z,45.38
2018-12-17T05:58:39.507Z,61.92
2018-12-17T06:08:45.283Z,41.00
2018-12-17T06:14:04.142Z,89.83
2018-12-17T06:16:34.716Z,29.00
2018-12-17T06:19:02.300Z,37.33
2018-12-17T06:21:30.934Z,51.92
2018-12-17T06:23:58.480Z,58.40
2018-12-17T06:26:26.046Z,53.35
2018-12-17T06:28:53.602Z,54.42
2018-12-17T06:31:31.691Z,88.33
2018-12-17T06:48:03.119Z,44.08
2018-12-17T07:07:25.433Z,25.30
2018-12-17T07:09:54.984Z,32.55
2018-12-17T07:12:25.636Z,22.27
2018-12-17T07:14:54.053Z,19.80
2018-12-17T07:17:22.290Z,36.48
2018-12-17T07:19:49.844Z,24.30
2018-12-17T07:22:19.916Z,23.55
2018-12-17T07:24:47.541Z,24.25
2018-12-17T07:33:44.941Z,31.15
2018-12-17T07:36:12.495Z,30.10
2018-12-17T07:38:41.212Z,27.60
2018-12-17T07:41:08.735Z,36.80
2018-12-17T07:43:38.414Z,27.55
2018-12-17T07:46:08.913Z,31.48
2018-12-17T07:48:36.437Z,39.63
2018-12-17T07:51:10.962Z,30.40
2018-12-17T07:53:39.887Z,21.95
2018-12-17T07:56:07.417Z,27.45
2018-12-17T07:58:34.990Z,27.65
2018-12-17T08:01:02.561Z,34.15
2018-12-17T08:03:30.087Z,23.90
2018-12-17T08:05:57.624Z,27.58
2018-12-17T08:08:25.137Z,27.55
2018-12-17T08:10:52.711Z,25.85
2018-12-17T08:13:20.337Z,31.68
2018-12-17T08:15:47.865Z,36.77
2018-12-17T08:18:24.806Z,24.55
2018-12-17T08:20:53.390Z,23.75
2018-12-17T08:23:20.959Z,19.90
2018-12-17T08:25:48.480Z,20.60
2018-12-17T08:28:16.085Z,24.32
2018-12-17T08:30:43.585Z,24.75
2018-12-17T08:33:11.802Z,18.30
2018-12-17T08:35:39.491Z,19.05
2018-12-17T08:38:06.997Z,22.45
2018-12-17T08:40:34.547Z,20.32
2018-12-17T08:43:02.057Z,19.25
2018-12-17T08:45:30.462Z,20.05
2018-12-17T08:47:58.317Z,19.82
2018-12-17T08:50:25.845Z,23.30
2018-12-17T08:52:53.347Z,19.32
2018-12-17T08:55:24.117Z,21.37
2018-12-17T08:57:51.662Z,14.15
2018-12-17T09:00:19.167Z,23.98
2018-12-17T09:02:46.711Z,20.48
2018-12-17T09:05:14.279Z,19.37
2018-12-17T09:07:41.810Z,18.40
2018-12-17T09:10:09.305Z,19.23
2018-12-17T09:12:36.873Z,18.67
2018-12-17T09:15:05.385Z,20.25
2018-12-17T09:17:32.906Z,17.87
2018-12-17T09:20:00.532Z,16.17
2018-12-17T09:22:28.114Z,14.87
2018-12-17T09:24:55.643Z,15.15
2018-12-17T09:27:23.257Z,17.40
2018-12-17T09:29:50.762Z,14.43
2018-12-17T09:32:18.280Z,18.80
2018-12-17T09:34:45.915Z,17.75
2018-12-17T09:37:13.435Z,23.62
2018-12-17T09:39:41.009Z,20.80
2018-12-17T09:42:08.615Z,36.68
2018-12-17T09:44:36.152Z,35.55
2018-12-17T09:47:03.665Z,50.43
2018-12-17T09:49:31.345Z,28.90
2018-12-17T09:51:58.970Z,25.65
2018-12-17T09:54:26.873Z,20.10
2018-12-17T09:56:55.261Z,25.60
2018-12-17T09:59:23.305Z,21.30
2018-12-17T10:01:50.887Z,23.22
2018-12-17T10:04:18.522Z,16.85
2018-12-17T10:06:46.111Z,15.90
2018-12-17T10:09:13.663Z,15.78
2018-12-17T10:11:41.240Z,16.60
2018-12-17T10:14:08.757Z,15.13
2018-12-17T10:16:36.289Z,10.70
2018-12-17T10:19:03.994Z,11.40
2018-12-17T10:21:31.902Z,12.63
2018-12-17T10:23:59.649Z,11.08
2018-12-17T10:26:27.186Z,10.18
2018-12-17T10:28:54.700Z,10.65
2018-12-17T10:31:25.213Z,10.13
2018-12-17T10:33:52.833Z,15.08
2018-12-17T10:36:20.378Z,11.73
2018-12-17T10:38:47.885Z,10.32
2018-12-17T10:41:15.455Z,8.78
2018-12-17T10:43:43.017Z,10.25
2018-12-17T10:46:10.572Z,9.65
2018-12-17T10:48:38.093Z,11.00
2018-12-17T10:51:05.639Z,9.83
2018-12-17T10:53:33.189Z,9.90
2018-12-17T10:56:04.555Z,11.12
2018-12-17T10:58:32.107Z,10.63
2018-12-17T11:01:05.198Z,10.23
2018-12-17T11:03:34.522Z,13.95
2018-12-17T11:06:02.618Z,9.60
2018-12-17T11:08:30.269Z,9.70
2018-12-17T11:10:57.784Z,9.53
2018-12-17T11:13:25.376Z,8.90
2018-12-17T11:15:52.937Z,10.88
2018-12-17T11:18:20.454Z,8.93
2018-12-17T11:20:47.990Z,10.93
2018-12-17T11:23:15.517Z,11.63
2018-12-17T11:25:43.052Z,13.32
2018-12-17T11:28:10.594Z,10.88
2018-12-17T11:30:38.157Z,9.83
2018-12-17T11:33:05.683Z,10.88
2018-12-17T11:35:33.226Z,10.50
2018-12-17T11:38:00.742Z,14.00
2018-12-17T11:40:28.293Z,10.72
2018-12-17T11:42:55.817Z,9.83
2018-12-17T11:45:23.621Z,9.88
2018-12-17T11:47:51.133Z,11.38
2018-12-17T11:50:18.699Z,11.55
2018-12-17T11:52:46.284Z,11.63
2018-12-17T11:55:13.824Z,10.30
2018-12-17T12:00:41.139Z,11.85
2018-12-17T12:03:08.709Z,9.25
2018-12-17T12:05:36.373Z,10.00
2018-12-17T12:08:03.990Z,10.20
2018-12-17T12:10:31.609Z,11.33
2018-12-17T12:12:59.145Z,10.98
2018-12-17T12:15:26.684Z,9.18
2018-12-17T12:17:54.266Z,10.15
2018-12-17T12:20:21.806Z,9.33
2018-12-17T12:22:49.467Z,9.05
2018-12-17T12:25:17.017Z,9.88
2018-12-17T12:27:44.538Z,8.88
2018-12-17T12:30:12.408Z,9.15
2018-12-17T12:32:39.925Z,9.73
2018-12-17T12:35:08.577Z,9.40
2018-12-17T12:37:36.090Z,9.88
2018-12-17T12:40:05.790Z,8.65
2018-12-17T12:42:33.328Z,8.73
2018-12-17T12:45:00.865Z,10.32
2018-12-17T12:47:28.447Z,8.43
2018-12-17T12:49:56.036Z,11.20
2018-12-17T12:52:23.592Z,8.85
2018-12-17T12:54:51.114Z,9.53
2018-12-17T12:57:18.667Z,7.97
2018-12-17T12:59:46.208Z,10.08
2018-12-17T13:02:13.717Z,7.70
2018-12-17T13:04:41.272Z,11.20
2018-12-17T13:07:08.824Z,9.08
2018-12-17T13:09:36.925Z,7.78
2018-12-17T13:12:04.627Z,8.23
2018-12-17T13:14:32.171Z,7.83
2018-12-17T13:17:01.694Z,8.23
2018-12-17T13:19:29.230Z,10.25
2018-12-17T13:21:56.779Z,7.95
2018-12-17T13:24:24.364Z,9.08
2018-12-17T13:26:51.885Z,7.92
2018-12-17T13:29:19.393Z,8.10
2018-12-17T13:31:46.963Z,8.25
2018-12-17T13:34:14.491Z,8.93
2018-12-17T13:36:42.068Z,8.65
2018-12-17T13:39:09.587Z,8.20
2018-12-17T13:41:40.686Z,8.85
2018-12-17T13:44:15.620Z,11.60
2018-12-17T13:46:46.518Z,8.00
2018-12-17T13:49:22.609Z,7.60
2018-12-17T13:51:59.422Z,10.08
2018-12-17T13:54:34.443Z,9.50
2018-12-17T13:57:05.322Z,7.45
2018-12-17T13:59:43.022Z,8.40
2018-12-17T14:02:17.945Z,12.73
2018-12-17T14:04:54.725Z,9.35
2018-12-17T14:07:22.278Z,11.88
2018-12-17T14:09:57.235Z,8.65
2018-12-17T14:12:24.722Z,9.13
2018-12-17T14:14:52.255Z,9.35
2018-12-17T14:17:25.601Z,10.65
2018-12-17T14:19:59.643Z,6.75
2018-12-17T14:22:28.249Z,9.05
2018-12-17T14:24:55.767Z,8.95
2018-12-17T14:27:23.303Z,10.10
2018-12-17T14:30:05.021Z,8.95
2018-12-17T14:32:41.278Z,12.90
2018-12-17T14:35:49.729Z,11.50
2018-12-17T14:38:25.663Z,7.40
2018-12-17T14:41:01.467Z,8.68
2018-12-17T14:43:37.039Z,9.23
2018-12-17T14:46:07.589Z,7.90
2018-12-17T14:48:35.127Z,7.90
2018-12-17T14:51:10.831Z,8.80
2018-12-17T14:53:45.617Z,11.00
2018-12-17T14:56:13.236Z,12.88
2018-12-17T14:58:44.356Z,12.33
2018-12-17T15:01:10.362Z,13.53
2018-12-17T15:03:37.909Z,10.48
2018-12-17T15:06:05.471Z,9.68
2018-12-17T15:08:33.348Z,7.65
2018-12-17T15:11:02.581Z,9.23
2018-12-17T15:13:30.099Z,8.38
2018-12-17T15:15:57.658Z,7.87
2018-12-17T15:18:25.215Z,9.70
2018-12-17T15:20:52.939Z,11.05
2018-12-17T15:23:20.469Z,11.43
2018-12-17T15:25:48.020Z,9.68
2018-12-17T15:28:15.936Z,8.08
2018-12-17T15:30:43.489Z,13.98
2018-12-17T15:33:11.945Z,10.65
2018-12-17T15:35:39.489Z,11.10
2018-12-17T15:38:07.021Z,12.45
2018-12-17T15:40:34.593Z,10.80
2018-12-17T15:43:02.119Z,7.83
2018-12-17T15:45:29.683Z,7.20
2018-12-17T15:47:57.286Z,9.80
2018-12-17T15:50:25.622Z,10.63
2018-12-17T15:52:53.149Z,10.60
2018-12-17T15:55:30.807Z,8.58
2018-12-17T15:58:05.789Z,8.15
2018-12-17T16:00:41.651Z,13.40
2018-12-17T16:03:17.161Z,9.38
2018-12-17T16:05:48.072Z,9.58
2018-12-17T16:08:23.668Z,18.10
2018-12-17T16:11:01.386Z,9.88
2018-12-17T16:13:57.491Z,15.85
2018-12-17T16:16:40.409Z,12.03
2018-12-17T16:19:18.156Z,18.15
2018-12-17T16:21:45.840Z,8.35
2018-12-17T16:24:13.397Z,11.03
2018-12-17T16:26:40.925Z,12.10
2018-12-17T16:29:08.443Z,14.43
2018-12-17T16:31:36.420Z,14.73
2018-12-17T16:34:03.962Z,12.25
2018-12-17T16:36:32.026Z,15.30
2018-12-17T16:38:59.620Z,12.78
2018-12-17T16:41:27.365Z,14.55
2018-12-17T16:43:55.045Z,20.27
2018-12-17T16:46:24.108Z,15.40
2018-12-17T16:48:51.918Z,13.05
2018-12-17T16:51:19.777Z,19.07
2018-12-17T16:53:52.104Z,16.65
2018-12-17T16:56:19.743Z,13.65
2018-12-17T16:58:47.298Z,15.43
2018-12-17T17:01:15.467Z,23.30
2018-12-17T17:03:43.089Z,14.00
2018-12-17T17:06:10.739Z,18.75
2018-12-17T17:08:38.296Z,17.65
2018-12-17T17:11:05.871Z,20.72
2018-12-17T17:13:33.571Z,25.02
2018-12-17T17:16:01.244Z,18.35
2018-12-17T17:18:28.857Z,20.60
2018-12-17T17:20:56.404Z,22.80
2018-12-17T17:31:08.784Z,23.77
2018-12-17T17:37:42.516Z,24.98
2018-12-17T17:40:10.294Z,21.40
2018-12-17T17:42:37.834Z,26.42
2018-12-17T17:45:05.635Z,27.77
2018-12-17T17:47:33.192Z,24.95
2018-12-17T17:50:00.760Z,26.37
2018-12-17T17:52:28.455Z,29.77
2018-12-17T17:54:55.973Z,33.25
2018-12-17T17:57:23.627Z,26.77
2018-12-17T17:59:52.126Z,27.22
2018-12-17T18:02:20.054Z,28.47
2018-12-17T18:04:47.890Z,27.40
2018-12-17T18:07:16.024Z,33.75
2018-12-17T18:09:43.598Z,29.48
2018-12-17T18:12:11.238Z,26.12
2018-12-17T18:14:39.987Z,30.97
2018-12-17T18:17:11.474Z,27.13
2018-12-17T18:19:39.074Z,30.92
2018-12-17T18:22:06.593Z,26.52
2018-12-17T18:24:34.458Z,29.67
2018-12-17T18:27:02.025Z,28.73
2018-12-17T18:29:32.449Z,23.83
2018-12-17T18:32:00.029Z,28.07
2018-12-17T18:34:27.629Z,27.90
2018-12-17T18:36:55.741Z,26.12
2018-12-17T18:39:25.310Z,31.93
2018-12-17T18:41:57.457Z,35.65
2018-12-17T19:02:00.483Z,27.30
2018-12-17T19:04:28.041Z,26.90
2018-12-17T19:06:55.548Z,30.30
2018-12-17T19:09:23.550Z,26.00
2018-12-17T19:11:51.119Z,30.92
2018-12-17T19:14:18.662Z,28.87
2018-12-17T19:16:46.352Z,31.68
2018-12-17T19:19:13.992Z,34.83
2018-12-17T19:21:41.538Z,34.67
2018-12-17T19:24:10.855Z,28.12
2018-12-17T19:26:43.085Z,37.10
2018-12-17T19:29:10.631Z,29.23
2018-12-17T19:31:38.178Z,28.52
2018-12-17T19:34:05.698Z,30.85
2018-12-17T19:36:33.247Z,22.73
2018-12-17T19:39:01.765Z,28.47
2018-12-17T19:41:29.391Z,24.18
2018-12-17T19:44:00.830Z,25.85
2018-12-17T19:46:28.888Z,22.73
2018-12-17T19:48:57.385Z,21.33
2018-12-17T19:51:25.015Z,24.37
2018-12-17T19:53:52.527Z,25.50
2018-12-17T19:56:20.993Z,27.00
2018-12-17T19:58:49.105Z,21.77
2018-12-17T20:01:16.674Z,26.12
2018-12-17T20:03:44.203Z,23.38
2018-12-17T20:06:15.853Z,19.80
2018-12-17T20:08:43.561Z,21.68
2018-12-17T20:11:11.120Z,20.35
2018-12-17T20:13:38.677Z,22.80
2018-12-17T20:16:06.285Z,26.15
2018-12-17T20:18:36.768Z,31.00
2018-12-17T20:21:04.287Z,27.20
2018-12-17T20:23:31.877Z,27.20
2018-12-17T20:25:59.550Z,31.70
2018-12-17T20:28:27.165Z,38.38
2018-12-17T20:30:54.714Z,41.05
2018-12-17T20:33:22.249Z,27.40
2018-12-17T20:35:49.854Z,28.85
2018-12-17T20:38:17.573Z,26.60
2018-12-17T20:40:45.290Z,28.98
2018-12-17T20:43:13.112Z,36.65
2018-12-17T20:45:40.719Z,28.12
2018-12-17T20:48:08.291Z,30.25
2018-12-17T20:50:35.846Z,36.90
2018-12-17T20:53:03.721Z,23.40
2018-12-17T20:55:31.390Z,27.22
2018-12-17T20:57:59.031Z,29.05
2018-12-17T21:00:26.660Z,28.45
2018-12-17T21:03:00.069Z,28.92
2018-12-17T21:05:26.550Z,25.10
2018-12-17T21:07:54.403Z,24.80
2018-12-17T21:10:21.952Z,26.65
2018-12-17T21:12:49.450Z,26.73
2018-12-17T21:15:17.001Z,22.05
2018-12-17T21:17:44.597Z,31.02
2018-12-17T21:20:12.233Z,26.50
2018-12-17T21:22:39.786Z,19.23
2018-12-17T21:25:07.381Z,22.37
2018-12-17T21:27:34.908Z,23.80
2018-12-17T21:30:02.603Z,17.60
2018-12-17T21:32:30.115Z,24.67
2018-12-17T21:34:57.962Z,19.67
2018-12-17T21:37:26.147Z,19.42
2018-12-17T21:39:53.997Z,15.43
2018-12-17T21:42:22.269Z,18.52
2018-12-17T21:44:50.380Z,14.13
2018-12-17T21:47:17.923Z,17.60
2018-12-17T21:49:47.154Z,15.93
2018-12-17T21:52:15.052Z,19.70
2018-12-17T21:54:42.875Z,13.08
2018-12-17T21:57:10.375Z,14.78
2018-12-17T21:59:38.045Z,13.32
2018-12-17T22:02:05.627Z,18.37
2018-12-17T22:04:33.170Z,20.40
2018-12-17T22:07:01.073Z,12.35
2018-12-17T22:09:28.631Z,13.15
2018-12-17T22:11:57.150Z,13.98
2018-12-17T22:14:25.981Z,14.85
2018-12-17T22:16:56.589Z,11.65
2018-12-17T22:19:26.118Z,13.08
2018-12-17T22:21:57.425Z,13.93
2018-12-17T22:24:25.287Z,10.80
2018-12-17T22:26:55.205Z,14.28
2018-12-17T22:29:23.144Z,14.73
2018-12-17T22:31:50.704Z,12.50
2018-12-17T22:34:18.200Z,13.28
2018-12-17T22:36:46.260Z,15.93
2018-12-17T22:39:15.750Z,13.32
2018-12-17T22:41:44.005Z,16.67
2018-12-17T22:44:13.534Z,15.15
2018-12-17T22:46:44.662Z,11.08
2018-12-17T22:49:14.583Z,12.68
2018-12-17T22:51:44.906Z,14.95
2018-12-17T22:54:14.892Z,10.58
2018-12-17T22:56:43.098Z,11.03
2018-12-17T22:59:10.959Z,11.73
2018-12-17T23:01:38.593Z,13.30
2018-12-17T23:04:07.132Z,12.07
2018-12-17T23:06:37.042Z,8.73
2018-12-17T23:09:05.562Z,9.50
2018-12-17T23:11:51.010Z,8.73
2018-12-17T23:14:30.966Z,8.85
2018-12-17T23:17:11.493Z,8.70
2018-12-17T23:19:42.101Z,11.35
2018-12-17T23:22:11.773Z,8.50
2018-12-17T23:24:39.379Z,7.35
2018-12-17T23:27:10.307Z,8.63
2018-12-17T23:29:38.315Z,8.30
2018-12-17T23:32:06.135Z,9.63
2018-12-17T23:34:33.733Z,8.38
2018-12-17T23:37:03.143Z,8.18
2018-12-17T23:39:30.700Z,10.32
2018-12-17T23:42:00.754Z,9.98
2018-12-17T23:44:28.378Z,8.35
2018-12-17T23:47:00.408Z,8.50
2018-12-17T23:49:34.532Z,7.42
2018-12-17T23:52:03.874Z,11.55
2018-12-17T23:54:32.892Z,7.55
2018-12-17T23:57:04.301Z,9.30
2018-12-17T23:59:31.951Z,6.65
